Charles A — WDH3586 — position and weather

sailwx.info

Track history (hours):
 
Tides and Currents Weather Stations Pressure Air Temp Water Temp Dewpoint Dewpoint Depression Visibility Wind Speed Wind Dir Waves Ship Positions

Charles A

Owner: TUG CHARLES A, INC., Tampa, FL. More information available from US FCC via Universal Licensing System and Coast Guard Vessel Documentation Center.

Last reported at 2018-Mar-27 21:05 UTC. Time now 2018-Apr-24 12:43 UTC.
Position N 31°51' W 080°44'.
Warning: this ship's position is 27 days out of date.

; draft 3 m.

Type: Tow > 200 m length. MMSI: 367608840.

Date/timePositionNaut miles runAvg speedWind from/ knotsBaromVisibWave heightAir tempDewpointWater temp
2018-Mar-27 21:05N 31°51' W 080°44'6 8.7
2018-Mar-27 20:23N 31°55' W 080°38'374 8.0
2018-Mar-25 21:36N 36°46' W 075°54'1 8.9
2018-Mar-25 21:28N 36°47' W 075°55'4 8.8
2018-Mar-25 20:59N 36°52' W 075°56'4 8.7
2018-Mar-25 20:30N 36°55' W 075°58'4 8.4
2018-Mar-25 20:00N 36°59' W 076°01'131 8.4
2018-Mar-25 04:22N 39°09' W 076°19'20 8.6
2018-Mar-25 02:02N 39°24' W 076°03'1 8.6
2018-Mar-25 01:55N 39°25' W 076°02'4 9.3
2018-Mar-25 01:27N 39°28' W 075°58'511.1
2018-Mar-25 00:58N 39°31' W 075°53'4 6.9
2018-Mar-25 00:28N 39°32' W 075°48'4 7.4
2018-Mar-24 23:59N 39°33' W 075°44'5 9.8
2018-Mar-24 23:30N 39°33' W 075°38'4 7.4
2018-Mar-24 23:00N 39°35' W 075°33'4 7.0
2018-Mar-24 22:30N 39°38' W 075°34'5 9.1
2018-Mar-24 21:58N 39°43' W 075°31'2 4.8
2018-Mar-24 21:30N 39°45' W 075°30'4 7.5
2018-Mar-24 21:00N 39°48' W 075°27'4 7.0
2018-Mar-24 20:29N 39°49' W 075°23'3 6.8
2018-Mar-24 20:00N 39°51' W 075°19'4 8.1
2018-Mar-24 19:29N 39°52' W 075°13'2 4.5
2018-Mar-24 19:00N 39°53' W 075°12'0 0.0
2018-Mar-24 18:30N 39°53' W 075°12'0 0.0
2018-Mar-24 18:00N 39°53' W 075°12'0 0.2
2018-Mar-24 17:30N 39°54' W 075°12'0 0.0
2018-Mar-24 17:00N 39°54' W 075°12'0 0.0
2018-Mar-24 16:30N 39°54' W 075°12'0 0.0
2018-Mar-24 16:00N 39°54' W 075°12'1 1.9
2018-Mar-24 15:29N 39°53' W 075°12'3 5.6
2018-Mar-24 15:00N 39°51' W 075°15'3 6.0
2018-Mar-24 14:30N 39°51' W 075°19'3 5.5
2018-Mar-24 14:00N 39°50' W 075°22'0 0.6
2018-Mar-24 13:29N 39°49' W 075°22'0 0.0
2018-Mar-24 13:00N 39°49' W 075°22'0 0.0
2018-Mar-24 12:30N 39°49' W 075°22'0 0.0
2018-Mar-24 12:00N 39°49' W 075°22'0 0.0
2018-Mar-24 11:30N 39°49' W 075°22'0 0.0
2018-Mar-24 10:59N 39°49' W 075°22'0 0.0
2018-Mar-24 10:30N 39°49' W 075°22'0 0.0
2018-Mar-24 10:00N 39°49' W 075°22'0 0.0
2018-Mar-24 09:30N 39°49' W 075°22'0 0.0
2018-Mar-24 09:00N 39°49' W 075°22'0 0.0
2018-Mar-24 08:30N 39°49' W 075°22'0 0.0
2018-Mar-24 08:00N 39°49' W 075°22'0 0.0
2018-Mar-24 07:30N 39°49' W 075°22'0 0.0
2018-Mar-24 07:00N 39°49' W 075°22'0 0.0
2018-Mar-24 06:30N 39°49' W 075°22'0 0.0
2018-Mar-24 06:00N 39°49' W 075°22'0 0.0
2018-Mar-24 05:30N 39°49' W 075°22'0 0.0
2018-Mar-24 05:00N 39°49' W 075°22'0 0.0
2018-Mar-24 04:30N 39°49' W 075°22'0 0.0
2018-Mar-24 04:00N 39°49' W 075°22'0 0.0
2018-Mar-24 03:30N 39°49' W 075°22'0 0.0
2018-Mar-24 03:00N 39°49' W 075°22'0 0.0
2018-Mar-24 02:30N 39°49' W 075°22'1 2.8
2018-Mar-24 02:01N 39°51' W 075°21'510.4
2018-Mar-24 01:30N 39°52' W 075°14'5 9.5
2018-Mar-24 01:01N 39°54' W 075°08'4 7.7
2018-Mar-24 00:30N 39°57' W 075°08'0 0.0
2018-Mar-24 00:00N 39°57' W 075°08'0 0.0
2018-Mar-23 23:30N 39°57' W 075°08'0 0.0
2018-Mar-23 23:00N 39°57' W 075°08'0 0.0
2018-Mar-23 22:30N 39°57' W 075°08'0 0.0
2018-Mar-23 22:00N 39°57' W 075°08'0 0.0
2018-Mar-23 21:30N 39°57' W 075°08'0 0.1
2018-Mar-23 21:00N 39°57' W 075°08'1 1.5
2018-Mar-23 20:30N 39°57' W 075°08'2 4.3
2018-Mar-23 20:00N 39°55' W 075°08'2 4.0
2018-Mar-23 19:30N 39°53' W 075°09'2 4.4
2018-Mar-23 19:01N 39°53' W 075°12'2 3.8
2018-Mar-23 18:30N 39°52' W 075°14'2 3.7
2018-Mar-23 18:00N 39°51' W 075°16'2 3.3
2018-Mar-23 17:31N 39°51' W 075°18'1 3.0
2018-Mar-23 17:01N 39°51' W 075°20'1 2.8
2018-Mar-23 16:30N 39°50' W 075°22'1 2.4
2018-Mar-23 16:00N 39°49' W 075°23'1 2.1
2018-Mar-23 15:30N 39°49' W 075°24'0 0.6
2018-Mar-23 15:01N 39°49' W 075°24'0 0.0
2018-Mar-23 14:31N 39°49' W 075°24'0 0.1
2018-Mar-23 14:01N 39°49' W 075°24'0 0.0
2018-Mar-23 13:30N 39°49' W 075°24'0 0.0
2018-Mar-23 13:00N 39°49' W 075°24'0 0.0
2018-Mar-23 12:30N 39°49' W 075°24'0 0.0
2018-Mar-23 12:00N 39°49' W 075°24'2 3.3
2018-Mar-23 11:29N 39°50' W 075°22'1 1.0
2018-Mar-23 10:58N 39°50' W 075°22'2 4.6
2018-Mar-23 10:30N 39°49' W 075°24'2 4.4
2018-Mar-23 10:00N 39°49' W 075°22'0 0.0
2018-Mar-23 09:30N 39°49' W 075°22'2 4.4
2018-Mar-23 09:00N 39°49' W 075°24'0 0.0
2018-Mar-23 08:30N 39°49' W 075°24'0 0.0
2018-Mar-23 08:00N 39°49' W 075°24'0 0.0
2018-Mar-23 07:30N 39°49' W 075°24'0 0.0
2018-Mar-23 07:00N 39°49' W 075°24'0 0.1
2018-Mar-23 06:29N 39°49' W 075°24'0 0.1
2018-Mar-23 06:00N 39°49' W 075°24'0 0.1
2018-Mar-23 05:30N 39°49' W 075°24'0 0.1
2018-Mar-23 05:00N 39°49' W 075°24'0 0.5
2018-Mar-23 04:30N 39°49' W 075°25'0 0.0
2018-Mar-23 04:00N 39°49' W 075°25'0 0.0
2018-Mar-23 03:31N 39°49' W 075°25'0 0.0
2018-Mar-23 03:00N 39°49' W 075°25'0 0.5
2018-Mar-23 02:30N 39°48' W 075°25'0 0.5
2018-Mar-23 02:00N 39°49' W 075°25'0 0.0
2018-Mar-23 01:30N 39°49' W 075°25'0 0.1
2018-Mar-23 01:00N 39°49' W 075°25'0 0.0
2018-Mar-23 00:30N 39°49' W 075°25'0 0.0
2018-Mar-23 00:01N 39°49' W 075°25'0 0.0
2018-Mar-22 23:31N 39°49' W 075°25'2 4.9
2018-Mar-22 23:01N 39°49' W 075°22'2 4.9
2018-Mar-22 22:30N 39°49' W 075°25'3 5.3
2018-Mar-22 22:01N 39°49' W 075°22'1 1.2
2018-Mar-22 21:31N 39°50' W 075°22'2 4.5
2018-Mar-22 21:01N 39°49' W 075°25'0 0.0
2018-Mar-22 20:30N 39°48' W 075°25'0 0.0
2018-Mar-22 20:00N 39°48' W 075°25'0 0.0
2018-Mar-22 19:30N 39°48' W 075°25'0 0.0
2018-Mar-22 19:00N 39°48' W 075°25'0 0.2
2018-Mar-22 18:31N 39°48' W 075°25'0 0.2
2018-Mar-22 18:00N 39°49' W 075°25'0 0.0
2018-Mar-22 17:31N 39°49' W 075°25'0 0.0
2018-Mar-22 17:00N 39°49' W 075°25'0 0.1
2018-Mar-22 16:31N 39°48' W 075°25'0 0.8
2018-Mar-22 16:01N 39°49' W 075°24'0 0.0
2018-Mar-22 15:30N 39°49' W 075°24'0 0.0
2018-Mar-22 15:00N 39°49' W 075°24'0 0.0
2018-Mar-22 14:30N 39°49' W 075°24'0 0.0
2018-Mar-22 14:01N 39°49' W 075°24'0 0.0
2018-Mar-22 13:29N 39°49' W 075°24'0 0.0
2018-Mar-22 13:00N 39°49' W 075°24'0 0.0
2018-Mar-22 12:30N 39°49' W 075°24'0 0.0
2018-Mar-22 12:00N 39°49' W 075°24'0 0.0
2018-Mar-22 11:19N 39°49' W 075°24'0 0.0
2018-Mar-22 10:55N 39°49' W 075°24'0 0.0
2018-Mar-22 10:30N 39°49' W 075°24'0 1.0
2018-Mar-22 10:00N 39°49' W 075°24'0 1.0
2018-Mar-22 09:30N 39°49' W 075°24'0 0.1
2018-Mar-22 09:00N 39°49' W 075°24'0 0.0
2018-Mar-22 08:30N 39°49' W 075°24'0 0.0
2018-Mar-22 08:00N 39°49' W 075°24'0 0.9
2018-Mar-22 07:30N 39°48' W 075°25'1 1.1
2018-Mar-22 07:00N 39°49' W 075°24'0 0.1
2018-Mar-22 06:30N 39°49' W 075°24'0 0.0
2018-Mar-22 06:00N 39°49' W 075°24'0 0.0
2018-Mar-22 05:30N 39°49' W 075°24'0 0.3
2018-Mar-22 05:00N 39°49' W 075°25'0 0.3
2018-Mar-22 04:30N 39°49' W 075°24'0 0.0
2018-Mar-22 04:00N 39°49' W 075°24'0 0.6
2018-Mar-22 03:30N 39°49' W 075°24'0 0.5
2018-Mar-22 03:00N 39°49' W 075°24'0 0.1
2018-Mar-22 02:30N 39°49' W 075°24'0 0.0
2018-Mar-22 02:00N 39°49' W 075°24'0 0.0
2018-Mar-22 01:29N 39°49' W 075°24'0 0.0
2018-Mar-22 00:59N 39°49' W 075°24'0 0.0
2018-Mar-22 00:31N 39°49' W 075°24'0 0.0
2018-Mar-22 00:01N 39°49' W 075°24'0 0.0
2018-Mar-21 23:30N 39°49' W 075°24'0 0.1
2018-Mar-21 23:00N 39°49' W 075°24'0 0.3
2018-Mar-21 22:31N 39°49' W 075°24'0 0.0
2018-Mar-21 22:00N 39°49' W 075°24'0 0.0
2018-Mar-21 21:30N 39°49' W 075°24'0 0.0
2018-Mar-21 21:01N 39°49' W 075°24'0 0.8
2018-Mar-21 20:30N 39°49' W 075°24'0 0.5
2018-Mar-21 20:01N 39°49' W 075°24'0 0.6
2018-Mar-21 19:30N 39°49' W 075°24'0 0.1
2018-Mar-21 19:00N 39°49' W 075°24'0 0.0
2018-Mar-21 18:30N 39°49' W 075°24'0 0.0
2018-Mar-21 17:59N 39°49' W 075°24'0 0.0
2018-Mar-21 17:30N 39°49' W 075°24'0 0.0
2018-Mar-21 17:00N 39°49' W 075°24'0 0.1
2018-Mar-21 16:31N 39°49' W 075°24'0 0.1
2018-Mar-21 16:00N 39°49' W 075°24'0 0.0
2018-Mar-21 15:30N 39°49' W 075°24'0 0.0
2018-Mar-21 15:00N 39°49' W 075°24'2 4.4
2018-Mar-21 14:30N 39°49' W 075°22'2 3.8
2018-Mar-21 14:00N 39°49' W 075°24'0 0.4
2018-Mar-21 13:28N 39°49' W 075°24'1 3.1
2018-Mar-21 13:00N 39°49' W 075°23'1 1.5
2018-Mar-21 12:29N 39°49' W 075°22'0 0.0
2018-Mar-21 12:00N 39°49' W 075°22'0 0.0
2018-Mar-21 11:30N 39°49' W 075°22'0 0.0
2018-Mar-21 10:59N 39°49' W 075°22'2 4.6
2018-Mar-21 10:30N 39°49' W 075°24'2 4.3
2018-Mar-21 10:00N 39°49' W 075°22'0 0.0
2018-Mar-21 09:29N 39°49' W 075°22'0 0.2
2018-Mar-21 09:00N 39°49' W 075°22'0 0.5
2018-Mar-21 08:30N 39°49' W 075°22'2 3.9
2018-Mar-21 08:00N 39°48' W 075°24'0 0.6
2018-Mar-21 07:30N 39°48' W 075°24'0 0.3
2018-Mar-21 07:00N 39°48' W 075°24'0 0.5
2018-Mar-21 06:30N 39°49' W 075°24'0 0.1
2018-Mar-21 06:00N 39°49' W 075°24'0 0.0
2018-Mar-21 05:29N 39°49' W 075°24'0 0.0
2018-Mar-21 05:00N 39°49' W 075°24'0 0.0
2018-Mar-21 04:30N 39°49' W 075°24'0 0.0
2018-Mar-21 04:00N 39°49' W 075°24'0 0.0
2018-Mar-21 03:30N 39°49' W 075°25'0 0.1
2018-Mar-21 03:00N 39°49' W 075°25'0 0.0
2018-Mar-21 02:31N 39°49' W 075°25'0 0.0
2018-Mar-21 02:00N 39°49' W 075°25'0 0.0
2018-Mar-21 01:31N 39°49' W 075°25'2 4.8
2018-Mar-21 01:00N 39°49' W 075°22'0 0.7
2018-Mar-21 00:31N 39°50' W 075°22'1 1.1
2018-Mar-21 00:00N 39°50' W 075°21'0 0.6
2018-Mar-20 23:30N 39°50' W 075°22'0 0.4
2018-Mar-20 23:00N 39°49' W 075°22'3 5.4
2018-Mar-20 22:30N 39°48' W 075°25'3 5.3
2018-Mar-20 22:00N 39°49' W 075°22'0 0.0
2018-Mar-20 21:30N 39°49' W 075°22'0 0.0
2018-Mar-20 21:00N 39°49' W 075°22'0 0.0
2018-Mar-20 20:30N 39°49' W 075°22'0 0.0
2018-Mar-20 20:00N 39°49' W 075°22'0 0.0
2018-Mar-20 19:31N 39°49' W 075°22'2 4.8
2018-Mar-20 19:01N 39°49' W 075°25'0 0.0
2018-Mar-20 18:31N 39°49' W 075°25'0 0.0
2018-Mar-20 18:01N 39°49' W 075°25'0 0.0
2018-Mar-20 17:31N 39°49' W 075°25'0 0.3
2018-Mar-20 17:01N 39°49' W 075°24'0 0.1
2018-Mar-20 16:30N 39°49' W 075°24'2 4.7
2018-Mar-20 16:01N 39°49' W 075°22'0 0.0
2018-Mar-20 15:30N 39°49' W 075°22'0 0.4
2018-Mar-20 15:01N 39°50' W 075°22'2 4.1
2018-Mar-20 14:30N 39°49' W 075°24'1 2.3
2018-Mar-20 14:00N 39°49' W 075°23'1 2.2
2018-Mar-20 13:30N 39°49' W 075°24'0 0.5
2018-Mar-20 13:01N 39°49' W 075°24'1 2.8
2018-Mar-20 12:30N 39°49' W 075°23'2 3.0
2018-Mar-20 12:00N 39°49' W 075°25'0 0.0
2018-Mar-20 11:29N 39°49' W 075°25'0 0.0
2018-Mar-20 10:59N 39°49' W 075°25'0 0.0
2018-Mar-20 10:30N 39°49' W 075°25'2 3.8
2018-Mar-20 09:59N 39°50' W 075°22'0 0.4
2018-Mar-20 09:30N 39°50' W 075°22'2 3.3
2018-Mar-20 09:00N 39°49' W 075°24'1 1.1
2018-Mar-20 08:30N 39°49' W 075°25'0 0.4
2018-Mar-20 08:00N 39°49' W 075°24'0 0.1
2018-Mar-20 07:30N 39°49' W 075°24'0 0.0
2018-Mar-20 07:00N 39°49' W 075°24'0 0.0
2018-Mar-20 06:30N 39°49' W 075°24'0 0.8
2018-Mar-20 06:00N 39°48' W 075°25'0 0.8
2018-Mar-20 05:30N 39°49' W 075°24'0 0.1
2018-Mar-20 05:00N 39°49' W 075°24'0 0.0
2018-Mar-20 04:30N 39°49' W 075°24'0 0.0
2018-Mar-20 04:00N 39°49' W 075°24'0 0.0
2018-Mar-20 03:30N 39°49' W 075°24'0 0.0
2018-Mar-20 03:00N 39°49' W 075°24'0 0.0
2018-Mar-20 02:30N 39°49' W 075°24'0 0.3
2018-Mar-20 02:00N 39°49' W 075°24'0 0.3
2018-Mar-20 01:30N 39°49' W 075°24'0 0.0
2018-Mar-20 01:00N 39°49' W 075°24'0 0.0
2018-Mar-20 00:30N 39°49' W 075°24'0 0.0
2018-Mar-20 00:00N 39°49' W 075°24'0 0.9
2018-Mar-19 23:30N 39°48' W 075°25'0 0.8
2018-Mar-19 23:00N 39°49' W 075°24'0 0.0
2018-Mar-19 22:30N 39°49' W 075°24'0 0.0
2018-Mar-19 22:00N 39°49' W 075°24'0 0.5
2018-Mar-19 21:30N 39°49' W 075°24'1 2.6
2018-Mar-19 21:00N 39°49' W 075°23'1 2.0
2018-Mar-19 20:31N 39°49' W 075°22'0 0.0
2018-Mar-19 20:00N 39°49' W 075°22'2 3.1
2018-Mar-19 19:30N 39°49' W 075°24'1 2.6
2018-Mar-19 19:00N 39°50' W 075°22'2 3.5
2018-Mar-19 18:30N 39°49' W 075°24'0 0.9
2018-Mar-19 18:00N 39°49' W 075°25'0 0.6
2018-Mar-19 17:30N 39°49' W 075°24'0 0.5
2018-Mar-19 17:00N 39°49' W 075°24'2 4.7
2018-Mar-19 16:30N 39°49' W 075°22'3 5.4
2018-Mar-19 16:00N 39°48' W 075°25'0 0.6
2018-Mar-19 15:30N 39°49' W 075°25'0 0.1
2018-Mar-19 15:00N 39°49' W 075°25'0 0.2
2018-Mar-19 14:30N 39°49' W 075°24'0 0.7
2018-Mar-19 13:59N 39°49' W 075°25'0 0.9
2018-Mar-19 13:30N 39°49' W 075°24'0 0.0
2018-Mar-19 13:00N 39°49' W 075°24'0 0.0
2018-Mar-19 12:30N 39°49' W 075°24'0 0.2
2018-Mar-19 12:00N 39°49' W 075°24'0 0.2
2018-Mar-19 11:30N 39°49' W 075°24'2 4.3
2018-Mar-19 11:00N 39°49' W 075°22'2 4.8
2018-Mar-19 10:30N 39°49' W 075°25'2 4.8
2018-Mar-19 10:01N 39°49' W 075°22'0 0.0
2018-Mar-19 09:30N 39°49' W 075°22'2 4.4
2018-Mar-19 09:00N 39°49' W 075°24'0 0.0
2018-Mar-19 08:30N 39°49' W 075°24'0 0.0
2018-Mar-19 08:00N 39°49' W 075°24'0 0.0
2018-Mar-19 07:27N 39°49' W 075°24'0 0.0
2018-Mar-19 07:00N 39°49' W 075°24'0 0.0
2018-Mar-19 06:30N 39°49' W 075°24'0 0.0
2018-Mar-19 06:00N 39°49' W 075°24'0 0.0
2018-Mar-19 05:28N 39°49' W 075°24'0 0.0
2018-Mar-19 05:00N 39°49' W 075°24'0 0.0
2018-Mar-19 04:30N 39°49' W 075°24'0 0.1
2018-Mar-19 04:00N 39°49' W 075°24'0 0.1
2018-Mar-19 03:30N 39°49' W 075°24'0 0.0
2018-Mar-19 03:00N 39°49' W 075°24'0 0.0
2018-Mar-19 02:31N 39°49' W 075°24'0 0.0
2018-Mar-19 02:00N 39°49' W 075°24'0 0.0
2018-Mar-19 01:31N 39°49' W 075°24'0 0.0
2018-Mar-19 01:00N 39°49' W 075°24'0 0.0
2018-Mar-19 00:30N 39°49' W 075°24'0 0.0
2018-Mar-19 00:01N 39°49' W 075°24'0 0.0
2018-Mar-18 23:29N 39°49' W 075°24'2 3.8
2018-Mar-18 23:01N 39°50' W 075°22'1 1.6
2018-Mar-18 22:30N 39°49' W 075°23'1 1.6
2018-Mar-18 21:59N 39°50' W 075°22'1 1.3
2018-Mar-18 21:29N 39°49' W 075°22'2 4.7
2018-Mar-18 21:00N 39°49' W 075°24'0 0.2
2018-Mar-18 20:29N 39°49' W 075°24'0 0.0
2018-Mar-18 20:00N 39°49' W 075°24'0 0.0
2018-Mar-18 19:30N 39°49' W 075°25'1 1.1
2018-Mar-18 18:59N 39°49' W 075°24'1 1.2
2018-Mar-18 18:30N 39°49' W 075°24'0 0.0
2018-Mar-18 17:59N 39°49' W 075°24'0 0.1
2018-Mar-18 17:30N 39°49' W 075°24'0 0.0
2018-Mar-18 16:59N 39°49' W 075°24'0 0.0
2018-Mar-18 16:29N 39°49' W 075°24'0 0.0
2018-Mar-18 15:59N 39°49' W 075°24'0 0.0
2018-Mar-18 15:30N 39°49' W 075°25'1 1.6
2018-Mar-18 15:00N 39°49' W 075°23'0 0.3
2018-Mar-18 14:30N 39°49' W 075°23'0 0.6
2018-Mar-18 14:01N 39°49' W 075°24'0 0.3
2018-Mar-18 13:30N 39°49' W 075°24'1 1.5
2018-Mar-18 13:00N 39°49' W 075°25'1 1.3
2018-Mar-18 12:31N 39°49' W 075°24'0 0.7
2018-Mar-18 12:00N 39°49' W 075°25'0 0.0
2018-Mar-18 11:30N 39°49' W 075°25'2 4.2
2018-Mar-18 10:59N 39°49' W 075°22'2 3.6
2018-Mar-18 10:30N 39°49' W 075°24'2 4.0
2018-Mar-18 10:00N 39°49' W 075°22'0 0.0
2018-Mar-18 09:30N 39°49' W 075°22'2 4.8
2018-Mar-18 09:01N 39°49' W 075°25'0 0.0
2018-Mar-18 08:30N 39°49' W 075°25'0 0.0
2018-Mar-18 08:00N 39°49' W 075°25'0 0.0
2018-Mar-18 07:30N 39°49' W 075°25'0 0.0
2018-Mar-18 07:00N 39°49' W 075°25'0 0.0
2018-Mar-18 06:30N 39°49' W 075°25'0 0.0
2018-Mar-18 06:00N 39°49' W 075°25'0 0.0
2018-Mar-18 05:30N 39°49' W 075°25'0 0.0
2018-Mar-18 05:00N 39°49' W 075°25'0 0.0
2018-Mar-18 04:31N 39°49' W 075°25'0 0.0
2018-Mar-18 04:00N 39°49' W 075°25'0 0.1
2018-Mar-18 03:30N 39°49' W 075°25'0 0.1
2018-Mar-18 03:01N 39°49' W 075°25'0 0.0
2018-Mar-18 02:31N 39°49' W 075°25'0 0.5
2018-Mar-18 02:01N 39°49' W 075°24'2 3.1
2018-Mar-18 01:31N 39°50' W 075°23'1 1.1
2018-Mar-18 01:00N 39°49' W 075°22'0 0.5
2018-Mar-18 00:30N 39°49' W 075°22'0 0.0
2018-Mar-18 00:00N 39°49' W 075°22'0 0.0
2018-Mar-17 23:31N 39°49' W 075°22'0 0.0
2018-Mar-17 23:00N 39°49' W 075°22'0 0.0
2018-Mar-17 22:31N 39°49' W 075°22'0 0.0
2018-Mar-17 22:01N 39°49' W 075°22'0 0.0
2018-Mar-17 21:31N 39°49' W 075°22'  
Track history (hours):
 
Tides and Currents Weather Stations Pressure Air Temp Water Temp Dewpoint Dewpoint Depression Visibility Wind Speed Wind Dir Waves Ship Positions

Charles A

Owner: TUG CHARLES A, INC., Tampa, FL. More information available from US FCC via Universal Licensing System and Coast Guard Vessel Documentation Center.

Last reported at 2018-Mar-27 21:05 UTC. Time now 2018-Apr-24 12:43 UTC.
Position N 31°51' W 080°44'.
Warning: this ship's position is 27 days out of date.

; draft 3 m.

Type: Tow > 200 m length. MMSI: 367608840.

Date/timePositionNaut miles runAvg speedWind from/ knotsBaromVisibWave heightAir tempDewpointWater temp
2018-Mar-27 21:05N 31°51' W 080°44'6 8.7
2018-Mar-27 20:23N 31°55' W 080°38'374 8.0
2018-Mar-25 21:36N 36°46' W 075°54'1 8.9
2018-Mar-25 21:28N 36°47' W 075°55'4 8.8
2018-Mar-25 20:59N 36°52' W 075°56'4 8.7
2018-Mar-25 20:30N 36°55' W 075°58'4 8.4
2018-Mar-25 20:00N 36°59' W 076°01'131 8.4
2018-Mar-25 04:22N 39°09' W 076°19'20 8.6
2018-Mar-25 02:02N 39°24' W 076°03'1 8.6
2018-Mar-25 01:55N 39°25' W 076°02'4 9.3
2018-Mar-25 01:27N 39°28' W 075°58'511.1
2018-Mar-25 00:58N 39°31' W 075°53'4 6.9
2018-Mar-25 00:28N 39°32' W 075°48'4 7.4
2018-Mar-24 23:59N 39°33' W 075°44'5 9.8
2018-Mar-24 23:30N 39°33' W 075°38'4 7.4
2018-Mar-24 23:00N 39°35' W 075°33'4 7.0
2018-Mar-24 22:30N 39°38' W 075°34'5 9.1
2018-Mar-24 21:58N 39°43' W 075°31'2 4.8
2018-Mar-24 21:30N 39°45' W 075°30'4 7.5
2018-Mar-24 21:00N 39°48' W 075°27'4 7.0
2018-Mar-24 20:29N 39°49' W 075°23'3 6.8
2018-Mar-24 20:00N 39°51' W 075°19'4 8.1
2018-Mar-24 19:29N 39°52' W 075°13'2 4.5
2018-Mar-24 19:00N 39°53' W 075°12'0 0.0
2018-Mar-24 18:30N 39°53' W 075°12'0 0.0
2018-Mar-24 18:00N 39°53' W 075°12'0 0.2
2018-Mar-24 17:30N 39°54' W 075°12'0 0.0
2018-Mar-24 17:00N 39°54' W 075°12'0 0.0
2018-Mar-24 16:30N 39°54' W 075°12'0 0.0
2018-Mar-24 16:00N 39°54' W 075°12'1 1.9
2018-Mar-24 15:29N 39°53' W 075°12'3 5.6
2018-Mar-24 15:00N 39°51' W 075°15'3 6.0
2018-Mar-24 14:30N 39°51' W 075°19'3 5.5
2018-Mar-24 14:00N 39°50' W 075°22'0 0.6
2018-Mar-24 13:29N 39°49' W 075°22'0 0.0
2018-Mar-24 13:00N 39°49' W 075°22'0 0.0
2018-Mar-24 12:30N 39°49' W 075°22'0 0.0
2018-Mar-24 12:00N 39°49' W 075°22'0 0.0
2018-Mar-24 11:30N 39°49' W 075°22'0 0.0
2018-Mar-24 10:59N 39°49' W 075°22'0 0.0
2018-Mar-24 10:30N 39°49' W 075°22'0 0.0
2018-Mar-24 10:00N 39°49' W 075°22'0 0.0
2018-Mar-24 09:30N 39°49' W 075°22'0 0.0
2018-Mar-24 09:00N 39°49' W 075°22'0 0.0
2018-Mar-24 08:30N 39°49' W 075°22'0 0.0
2018-Mar-24 08:00N 39°49' W 075°22'0 0.0
2018-Mar-24 07:30N 39°49' W 075°22'0 0.0
2018-Mar-24 07:00N 39°49' W 075°22'0 0.0
2018-Mar-24 06:30N 39°49' W 075°22'0 0.0
2018-Mar-24 06:00N 39°49' W 075°22'0 0.0
2018-Mar-24 05:30N 39°49' W 075°22'0 0.0
2018-Mar-24 05:00N 39°49' W 075°22'0 0.0
2018-Mar-24 04:30N 39°49' W 075°22'0 0.0
2018-Mar-24 04:00N 39°49' W 075°22'0 0.0
2018-Mar-24 03:30N 39°49' W 075°22'0 0.0
2018-Mar-24 03:00N 39°49' W 075°22'0 0.0
2018-Mar-24 02:30N 39°49' W 075°22'1 2.8
2018-Mar-24 02:01N 39°51' W 075°21'510.4
2018-Mar-24 01:30N 39°52' W 075°14'5 9.5
2018-Mar-24 01:01N 39°54' W 075°08'4 7.7
2018-Mar-24 00:30N 39°57' W 075°08'0 0.0
2018-Mar-24 00:00N 39°57' W 075°08'0 0.0
2018-Mar-23 23:30N 39°57' W 075°08'0 0.0
2018-Mar-23 23:00N 39°57' W 075°08'0 0.0
2018-Mar-23 22:30N 39°57' W 075°08'0 0.0
2018-Mar-23 22:00N 39°57' W 075°08'0 0.0
2018-Mar-23 21:30N 39°57' W 075°08'0 0.1
2018-Mar-23 21:00N 39°57' W 075°08'1 1.5
2018-Mar-23 20:30N 39°57' W 075°08'2 4.3
2018-Mar-23 20:00N 39°55' W 075°08'2 4.0
2018-Mar-23 19:30N 39°53' W 075°09'2 4.4
2018-Mar-23 19:01N 39°53' W 075°12'2 3.8
2018-Mar-23 18:30N 39°52' W 075°14'2 3.7
2018-Mar-23 18:00N 39°51' W 075°16'2 3.3
2018-Mar-23 17:31N 39°51' W 075°18'1 3.0
2018-Mar-23 17:01N 39°51' W 075°20'1 2.8
2018-Mar-23 16:30N 39°50' W 075°22'1 2.4
2018-Mar-23 16:00N 39°49' W 075°23'1 2.1
2018-Mar-23 15:30N 39°49' W 075°24'0 0.6
2018-Mar-23 15:01N 39°49' W 075°24'0 0.0
2018-Mar-23 14:31N 39°49' W 075°24'0 0.1
2018-Mar-23 14:01N 39°49' W 075°24'0 0.0
2018-Mar-23 13:30N 39°49' W 075°24'0 0.0
2018-Mar-23 13:00N 39°49' W 075°24'0 0.0
2018-Mar-23 12:30N 39°49' W 075°24'0 0.0
2018-Mar-23 12:00N 39°49' W 075°24'2 3.3
2018-Mar-23 11:29N 39°50' W 075°22'1 1.0
2018-Mar-23 10:58N 39°50' W 075°22'2 4.6
2018-Mar-23 10:30N 39°49' W 075°24'2 4.4
2018-Mar-23 10:00N 39°49' W 075°22'0 0.0
2018-Mar-23 09:30N 39°49' W 075°22'2 4.4
2018-Mar-23 09:00N 39°49' W 075°24'0 0.0
2018-Mar-23 08:30N 39°49' W 075°24'0 0.0
2018-Mar-23 08:00N 39°49' W 075°24'0 0.0
2018-Mar-23 07:30N 39°49' W 075°24'0 0.0
2018-Mar-23 07:00N 39°49' W 075°24'0 0.1
2018-Mar-23 06:29N 39°49' W 075°24'0 0.1
2018-Mar-23 06:00N 39°49' W 075°24'0 0.1
2018-Mar-23 05:30N 39°49' W 075°24'0 0.1
2018-Mar-23 05:00N 39°49' W 075°24'0 0.5
2018-Mar-23 04:30N 39°49' W 075°25'0 0.0
2018-Mar-23 04:00N 39°49' W 075°25'0 0.0
2018-Mar-23 03:31N 39°49' W 075°25'0 0.0
2018-Mar-23 03:00N 39°49' W 075°25'0 0.5
2018-Mar-23 02:30N 39°48' W 075°25'0 0.5
2018-Mar-23 02:00N 39°49' W 075°25'0 0.0
2018-Mar-23 01:30N 39°49' W 075°25'0 0.1
2018-Mar-23 01:00N 39°49' W 075°25'0 0.0
2018-Mar-23 00:30N 39°49' W 075°25'0 0.0
2018-Mar-23 00:01N 39°49' W 075°25'0 0.0
2018-Mar-22 23:31N 39°49' W 075°25'2 4.9
2018-Mar-22 23:01N 39°49' W 075°22'2 4.9
2018-Mar-22 22:30N 39°49' W 075°25'3 5.3
2018-Mar-22 22:01N 39°49' W 075°22'1 1.2
2018-Mar-22 21:31N 39°50' W 075°22'2 4.5
2018-Mar-22 21:01N 39°49' W 075°25'0 0.0
2018-Mar-22 20:30N 39°48' W 075°25'0 0.0
2018-Mar-22 20:00N 39°48' W 075°25'0 0.0
2018-Mar-22 19:30N 39°48' W 075°25'0 0.0
2018-Mar-22 19:00N 39°48' W 075°25'0 0.2
2018-Mar-22 18:31N 39°48' W 075°25'0 0.2
2018-Mar-22 18:00N 39°49' W 075°25'0 0.0
2018-Mar-22 17:31N 39°49' W 075°25'0 0.0
2018-Mar-22 17:00N 39°49' W 075°25'0 0.1
2018-Mar-22 16:31N 39°48' W 075°25'0 0.8
2018-Mar-22 16:01N 39°49' W 075°24'0 0.0
2018-Mar-22 15:30N 39°49' W 075°24'0 0.0
2018-Mar-22 15:00N 39°49' W 075°24'0 0.0
2018-Mar-22 14:30N 39°49' W 075°24'0 0.0
2018-Mar-22 14:01N 39°49' W 075°24'0 0.0
2018-Mar-22 13:29N 39°49' W 075°24'0 0.0
2018-Mar-22 13:00N 39°49' W 075°24'0 0.0
2018-Mar-22 12:30N 39°49' W 075°24'0 0.0
2018-Mar-22 12:00N 39°49' W 075°24'0 0.0
2018-Mar-22 11:19N 39°49' W 075°24'0 0.0
2018-Mar-22 10:55N 39°49' W 075°24'0 0.0
2018-Mar-22 10:30N 39°49' W 075°24'0 1.0
2018-Mar-22 10:00N 39°49' W 075°24'0 1.0
2018-Mar-22 09:30N 39°49' W 075°24'0 0.1
2018-Mar-22 09:00N 39°49' W 075°24'0 0.0
2018-Mar-22 08:30N 39°49' W 075°24'0 0.0
2018-Mar-22 08:00N 39°49' W 075°24'0 0.9
2018-Mar-22 07:30N 39°48' W 075°25'1 1.1
2018-Mar-22 07:00N 39°49' W 075°24'0 0.1
2018-Mar-22 06:30N 39°49' W 075°24'0 0.0
2018-Mar-22 06:00N 39°49' W 075°24'0 0.0
2018-Mar-22 05:30N 39°49' W 075°24'0 0.3
2018-Mar-22 05:00N 39°49' W 075°25'0 0.3
2018-Mar-22 04:30N 39°49' W 075°24'0 0.0
2018-Mar-22 04:00N 39°49' W 075°24'0 0.6
2018-Mar-22 03:30N 39°49' W 075°24'0 0.5
2018-Mar-22 03:00N 39°49' W 075°24'0 0.1
2018-Mar-22 02:30N 39°49' W 075°24'0 0.0
2018-Mar-22 02:00N 39°49' W 075°24'0 0.0
2018-Mar-22 01:29N 39°49' W 075°24'0 0.0
2018-Mar-22 00:59N 39°49' W 075°24'0 0.0
2018-Mar-22 00:31N 39°49' W 075°24'0 0.0
2018-Mar-22 00:01N 39°49' W 075°24'0 0.0
2018-Mar-21 23:30N 39°49' W 075°24'0 0.1
2018-Mar-21 23:00N 39°49' W 075°24'0 0.3
2018-Mar-21 22:31N 39°49' W 075°24'0 0.0
2018-Mar-21 22:00N 39°49' W 075°24'0 0.0
2018-Mar-21 21:30N 39°49' W 075°24'0 0.0
2018-Mar-21 21:01N 39°49' W 075°24'0 0.8
2018-Mar-21 20:30N 39°49' W 075°24'0 0.5
2018-Mar-21 20:01N 39°49' W 075°24'0 0.6
2018-Mar-21 19:30N 39°49' W 075°24'0 0.1
2018-Mar-21 19:00N 39°49' W 075°24'0 0.0
2018-Mar-21 18:30N 39°49' W 075°24'0 0.0
2018-Mar-21 17:59N 39°49' W 075°24'0 0.0
2018-Mar-21 17:30N 39°49' W 075°24'0 0.0
2018-Mar-21 17:00N 39°49' W 075°24'0 0.1
2018-Mar-21 16:31N 39°49' W 075°24'0 0.1
2018-Mar-21 16:00N 39°49' W 075°24'0 0.0
2018-Mar-21 15:30N 39°49' W 075°24'0 0.0
2018-Mar-21 15:00N 39°49' W 075°24'2 4.4
2018-Mar-21 14:30N 39°49' W 075°22'2 3.8
2018-Mar-21 14:00N 39°49' W 075°24'0 0.4
2018-Mar-21 13:28N 39°49' W 075°24'1 3.1
2018-Mar-21 13:00N 39°49' W 075°23'1 1.5
2018-Mar-21 12:29N 39°49' W 075°22'0 0.0
2018-Mar-21 12:00N 39°49' W 075°22'0 0.0
2018-Mar-21 11:30N 39°49' W 075°22'0 0.0
2018-Mar-21 10:59N 39°49' W 075°22'2 4.6
2018-Mar-21 10:30N 39°49' W 075°24'2 4.3
2018-Mar-21 10:00N 39°49' W 075°22'0 0.0
2018-Mar-21 09:29N 39°49' W 075°22'0 0.2
2018-Mar-21 09:00N 39°49' W 075°22'0 0.5
2018-Mar-21 08:30N 39°49' W 075°22'2 3.9
2018-Mar-21 08:00N 39°48' W 075°24'0 0.6
2018-Mar-21 07:30N 39°48' W 075°24'0 0.3
2018-Mar-21 07:00N 39°48' W 075°24'0 0.5
2018-Mar-21 06:30N 39°49' W 075°24'0 0.1
2018-Mar-21 06:00N 39°49' W 075°24'0 0.0
2018-Mar-21 05:29N 39°49' W 075°24'0 0.0
2018-Mar-21 05:00N 39°49' W 075°24'0 0.0
2018-Mar-21 04:30N 39°49' W 075°24'0 0.0
2018-Mar-21 04:00N 39°49' W 075°24'0 0.0
2018-Mar-21 03:30N 39°49' W 075°25'0 0.1
2018-Mar-21 03:00N 39°49' W 075°25'0 0.0
2018-Mar-21 02:31N 39°49' W 075°25'0 0.0
2018-Mar-21 02:00N 39°49' W 075°25'0 0.0
2018-Mar-21 01:31N 39°49' W 075°25'2 4.8
2018-Mar-21 01:00N 39°49' W 075°22'0 0.7
2018-Mar-21 00:31N 39°50' W 075°22'1 1.1
2018-Mar-21 00:00N 39°50' W 075°21'0 0.6
2018-Mar-20 23:30N 39°50' W 075°22'0 0.4
2018-Mar-20 23:00N 39°49' W 075°22'3 5.4
2018-Mar-20 22:30N 39°48' W 075°25'3 5.3
2018-Mar-20 22:00N 39°49' W 075°22'0 0.0
2018-Mar-20 21:30N 39°49' W 075°22'0 0.0
2018-Mar-20 21:00N 39°49' W 075°22'0 0.0
2018-Mar-20 20:30N 39°49' W 075°22'0 0.0
2018-Mar-20 20:00N 39°49' W 075°22'0 0.0
2018-Mar-20 19:31N 39°49' W 075°22'2 4.8
2018-Mar-20 19:01N 39°49' W 075°25'0 0.0
2018-Mar-20 18:31N 39°49' W 075°25'0 0.0
2018-Mar-20 18:01N 39°49' W 075°25'0 0.0
2018-Mar-20 17:31N 39°49' W 075°25'0 0.3
2018-Mar-20 17:01N 39°49' W 075°24'0 0.1
2018-Mar-20 16:30N 39°49' W 075°24'2 4.7
2018-Mar-20 16:01N 39°49' W 075°22'0 0.0
2018-Mar-20 15:30N 39°49' W 075°22'0 0.4
2018-Mar-20 15:01N 39°50' W 075°22'2 4.1
2018-Mar-20 14:30N 39°49' W 075°24'1 2.3
2018-Mar-20 14:00N 39°49' W 075°23'1 2.2
2018-Mar-20 13:30N 39°49' W 075°24'0 0.5
2018-Mar-20 13:01N 39°49' W 075°24'1 2.8
2018-Mar-20 12:30N 39°49' W 075°23'2 3.0
2018-Mar-20 12:00N 39°49' W 075°25'0 0.0
2018-Mar-20 11:29N 39°49' W 075°25'0 0.0
2018-Mar-20 10:59N 39°49' W 075°25'0 0.0
2018-Mar-20 10:30N 39°49' W 075°25'2 3.8
2018-Mar-20 09:59N 39°50' W 075°22'0 0.4
2018-Mar-20 09:30N 39°50' W 075°22'2 3.3
2018-Mar-20 09:00N 39°49' W 075°24'1 1.1
2018-Mar-20 08:30N 39°49' W 075°25'0 0.4
2018-Mar-20 08:00N 39°49' W 075°24'0 0.1
2018-Mar-20 07:30N 39°49' W 075°24'0 0.0
2018-Mar-20 07:00N 39°49' W 075°24'0 0.0
2018-Mar-20 06:30N 39°49' W 075°24'0 0.8
2018-Mar-20 06:00N 39°48' W 075°25'0 0.8
2018-Mar-20 05:30N 39°49' W 075°24'0 0.1
2018-Mar-20 05:00N 39°49' W 075°24'0 0.0
2018-Mar-20 04:30N 39°49' W 075°24'0 0.0
2018-Mar-20 04:00N 39°49' W 075°24'0 0.0
2018-Mar-20 03:30N 39°49' W 075°24'0 0.0
2018-Mar-20 03:00N 39°49' W 075°24'0 0.0
2018-Mar-20 02:30N 39°49' W 075°24'0 0.3
2018-Mar-20 02:00N 39°49' W 075°24'0 0.3
2018-Mar-20 01:30N 39°49' W 075°24'0 0.0
2018-Mar-20 01:00N 39°49' W 075°24'0 0.0
2018-Mar-20 00:30N 39°49' W 075°24'0 0.0
2018-Mar-20 00:00N 39°49' W 075°24'0 0.9
2018-Mar-19 23:30N 39°48' W 075°25'0 0.8
2018-Mar-19 23:00N 39°49' W 075°24'0 0.0
2018-Mar-19 22:30N 39°49' W 075°24'0 0.0
2018-Mar-19 22:00N 39°49' W 075°24'0 0.5
2018-Mar-19 21:30N 39°49' W 075°24'1 2.6
2018-Mar-19 21:00N 39°49' W 075°23'1 2.0
2018-Mar-19 20:31N 39°49' W 075°22'0 0.0
2018-Mar-19 20:00N 39°49' W 075°22'2 3.1
2018-Mar-19 19:30N 39°49' W 075°24'1 2.6
2018-Mar-19 19:00N 39°50' W 075°22'2 3.5
2018-Mar-19 18:30N 39°49' W 075°24'0 0.9
2018-Mar-19 18:00N 39°49' W 075°25'0 0.6
2018-Mar-19 17:30N 39°49' W 075°24'0 0.5
2018-Mar-19 17:00N 39°49' W 075°24'2 4.7
2018-Mar-19 16:30N 39°49' W 075°22'3 5.4
2018-Mar-19 16:00N 39°48' W 075°25'0 0.6
2018-Mar-19 15:30N 39°49' W 075°25'0 0.1
2018-Mar-19 15:00N 39°49' W 075°25'0 0.2
2018-Mar-19 14:30N 39°49' W 075°24'0 0.7
2018-Mar-19 13:59N 39°49' W 075°25'0 0.9
2018-Mar-19 13:30N 39°49' W 075°24'0 0.0
2018-Mar-19 13:00N 39°49' W 075°24'0 0.0
2018-Mar-19 12:30N 39°49' W 075°24'0 0.2
2018-Mar-19 12:00N 39°49' W 075°24'0 0.2
2018-Mar-19 11:30N 39°49' W 075°24'2 4.3
2018-Mar-19 11:00N 39°49' W 075°22'2 4.8
2018-Mar-19 10:30N 39°49' W 075°25'2 4.8
2018-Mar-19 10:01N 39°49' W 075°22'0 0.0
2018-Mar-19 09:30N 39°49' W 075°22'2 4.4
2018-Mar-19 09:00N 39°49' W 075°24'0 0.0
2018-Mar-19 08:30N 39°49' W 075°24'0 0.0
2018-Mar-19 08:00N 39°49' W 075°24'0 0.0
2018-Mar-19 07:27N 39°49' W 075°24'0 0.0
2018-Mar-19 07:00N 39°49' W 075°24'0 0.0
2018-Mar-19 06:30N 39°49' W 075°24'0 0.0
2018-Mar-19 06:00N 39°49' W 075°24'0 0.0
2018-Mar-19 05:28N 39°49' W 075°24'0 0.0
2018-Mar-19 05:00N 39°49' W 075°24'0 0.0
2018-Mar-19 04:30N 39°49' W 075°24'0 0.1
2018-Mar-19 04:00N 39°49' W 075°24'0 0.1
2018-Mar-19 03:30N 39°49' W 075°24'0 0.0
2018-Mar-19 03:00N 39°49' W 075°24'0 0.0
2018-Mar-19 02:31N 39°49' W 075°24'0 0.0
2018-Mar-19 02:00N 39°49' W 075°24'0 0.0
2018-Mar-19 01:31N 39°49' W 075°24'0 0.0
2018-Mar-19 01:00N 39°49' W 075°24'0 0.0
2018-Mar-19 00:30N 39°49' W 075°24'0 0.0
2018-Mar-19 00:01N 39°49' W 075°24'0 0.0
2018-Mar-18 23:29N 39°49' W 075°24'2 3.8
2018-Mar-18 23:01N 39°50' W 075°22'1 1.6
2018-Mar-18 22:30N 39°49' W 075°23'1 1.6
2018-Mar-18 21:59N 39°50' W 075°22'1 1.3
2018-Mar-18 21:29N 39°49' W 075°22'2 4.7
2018-Mar-18 21:00N 39°49' W 075°24'0 0.2
2018-Mar-18 20:29N 39°49' W 075°24'0 0.0
2018-Mar-18 20:00N 39°49' W 075°24'0 0.0
2018-Mar-18 19:30N 39°49' W 075°25'1 1.1
2018-Mar-18 18:59N 39°49' W 075°24'1 1.2
2018-Mar-18 18:30N 39°49' W 075°24'0 0.0
2018-Mar-18 17:59N 39°49' W 075°24'0 0.1
2018-Mar-18 17:30N 39°49' W 075°24'0 0.0
2018-Mar-18 16:59N 39°49' W 075°24'0 0.0
2018-Mar-18 16:29N 39°49' W 075°24'0 0.0
2018-Mar-18 15:59N 39°49' W 075°24'0 0.0
2018-Mar-18 15:30N 39°49' W 075°25'1 1.6
2018-Mar-18 15:00N 39°49' W 075°23'0 0.3
2018-Mar-18 14:30N 39°49' W 075°23'0 0.6
2018-Mar-18 14:01N 39°49' W 075°24'0 0.3
2018-Mar-18 13:30N 39°49' W 075°24'1 1.5
2018-Mar-18 13:00N 39°49' W 075°25'1 1.3
2018-Mar-18 12:31N 39°49' W 075°24'0 0.7
2018-Mar-18 12:00N 39°49' W 075°25'0 0.0
2018-Mar-18 11:30N 39°49' W 075°25'2 4.2
2018-Mar-18 10:59N 39°49' W 075°22'2 3.6
2018-Mar-18 10:30N 39°49' W 075°24'2 4.0
2018-Mar-18 10:00N 39°49' W 075°22'0 0.0
2018-Mar-18 09:30N 39°49' W 075°22'2 4.8
2018-Mar-18 09:01N 39°49' W 075°25'0 0.0
2018-Mar-18 08:30N 39°49' W 075°25'0 0.0
2018-Mar-18 08:00N 39°49' W 075°25'0 0.0
2018-Mar-18 07:30N 39°49' W 075°25'0 0.0
2018-Mar-18 07:00N 39°49' W 075°25'0 0.0
2018-Mar-18 06:30N 39°49' W 075°25'0 0.0
2018-Mar-18 06:00N 39°49' W 075°25'0 0.0
2018-Mar-18 05:30N 39°49' W 075°25'0 0.0
2018-Mar-18 05:00N 39°49' W 075°25'0 0.0
2018-Mar-18 04:31N 39°49' W 075°25'0 0.0
2018-Mar-18 04:00N 39°49' W 075°25'0 0.1
2018-Mar-18 03:30N 39°49' W 075°25'0 0.1
2018-Mar-18 03:01N 39°49' W 075°25'0 0.0
2018-Mar-18 02:31N 39°49' W 075°25'0 0.5
2018-Mar-18 02:01N 39°49' W 075°24'2 3.1
2018-Mar-18 01:31N 39°50' W 075°23'1 1.1
2018-Mar-18 01:00N 39°49' W 075°22'0 0.5
2018-Mar-18 00:30N 39°49' W 075°22'0 0.0
2018-Mar-18 00:00N 39°49' W 075°22'0 0.0
2018-Mar-17 23:31N 39°49' W 075°22'0 0.0
2018-Mar-17 23:00N 39°49' W 075°22'0 0.0
2018-Mar-17 22:31N 39°49' W 075°22'0 0.0
2018-Mar-17 22:01N 39°49' W 075°22'0 0.0
2018-Mar-17 21:31N 39°49' W 075°22'  

Dump ship's entire track history